createdAt,value
2018-09-25T00:00:05.208Z,101888.64
2018-09-25T00:05:13.959Z,101893.17
2018-09-25T00:10:22.695Z,101892.42
2018-09-25T00:15:31.330Z,101907.55
2018-09-25T00:20:39.867Z,101911.11
2018-09-25T00:25:48.615Z,101909.52
2018-09-25T00:30:57.250Z,101921.01
2018-09-25T00:36:05.850Z,101926.58
2018-09-25T00:41:14.579Z,101921.42
2018-09-25T00:46:23.341Z,101931.77
2018-09-25T00:51:32.013Z,101931.95
2018-09-25T00:56:40.682Z,101935.33
2018-09-25T01:01:49.359Z,101938.11
2018-09-25T01:06:57.989Z,101939.30
2018-09-25T01:12:06.551Z,101933.13
2018-09-25T01:17:15.139Z,101928.37
2018-09-25T01:22:23.786Z,101935.93
2018-09-25T01:27:32.306Z,101933.32
2018-09-25T01:32:40.930Z,101938.12
2018-09-25T01:37:49.595Z,101938.09
2018-09-25T01:42:58.237Z,101948.84
2018-09-25T01:48:06.938Z,101950.03
2018-09-25T01:53:15.716Z,101949.23
2018-09-25T01:58:24.450Z,101957.39
2018-09-25T02:03:33.179Z,101956.58
2018-09-25T02:08:41.766Z,101959.95
2018-09-25T02:13:50.438Z,101959.15
2018-09-25T02:18:59.043Z,101972.09
2018-09-25T02:24:07.706Z,101972.86
2018-09-25T02:29:16.371Z,101978.42
2018-09-25T02:34:25.297Z,101988.59
2018-09-25T02:39:33.967Z,101988.17
2018-09-25T02:44:42.658Z,101997.91
2018-09-25T02:49:51.282Z,102001.47
2018-09-25T02:54:59.962Z,102006.44
2018-09-25T03:00:08.546Z,102000.88
2018-09-25T03:05:17.242Z,101999.28
2018-09-25T03:10:25.839Z,102009.44
2018-09-25T03:15:34.481Z,102005.05
2018-09-25T03:20:43.050Z,102022.75
2018-09-25T03:25:51.904Z,102023.73
2018-09-25T03:31:00.622Z,102026.52
2018-09-25T03:36:09.242Z,102033.09
2018-09-25T03:41:17.830Z,102033.27
2018-09-25T03:46:26.302Z,102038.45
2018-09-25T03:51:34.971Z,102045.58
2018-09-25T03:56:43.694Z,102041.20
2018-09-25T04:01:52.423Z,102044.58
2018-09-25T04:07:01.059Z,102046.56
2018-09-25T04:12:09.663Z,102046.97
2018-09-25T04:17:18.308Z,102057.52
2018-09-25T04:22:26.875Z,102062.27
2018-09-25T04:27:35.415Z,102065.44
2018-09-25T04:32:44.011Z,102074.59
2018-09-25T04:37:52.605Z,102079.95
2018-09-25T04:43:01.284Z,102088.89
2018-09-25T04:48:10.026Z,102093.48
2018-09-25T04:53:18.548Z,102093.27
2018-09-25T04:58:27.175Z,102091.45
2018-09-25T05:03:35.886Z,102096.22
2018-09-25T05:08:44.561Z,102096.22
2018-09-25T05:13:53.075Z,102111.95
2018-09-25T05:19:01.651Z,102116.50
2018-09-25T05:24:10.256Z,102118.86
2018-09-25T05:29:18.975Z,102125.82
2018-09-25T05:34:27.681Z,102134.38
2018-09-25T05:39:36.402Z,102134.97
2018-09-25T05:44:44.959Z,102143.73
2018-09-25T05:49:53.552Z,102145.89
2018-09-25T05:55:02.092Z,102153.25
2018-09-25T06:00:11.019Z,102161.19
2018-09-25T06:05:19.809Z,102168.56
2018-09-25T06:10:28.511Z,102184.25
2018-09-25T06:15:37.029Z,102187.62
2018-09-25T06:20:45.771Z,102191.41
2018-09-25T06:25:54.342Z,102194.80
2018-09-25T06:31:02.943Z,102192.69
2018-09-25T06:36:11.680Z,102204.84
2018-09-25T06:41:20.232Z,102219.02
2018-09-25T06:46:28.992Z,102222.75
2018-09-25T06:51:37.690Z,102227.48
2018-09-25T06:56:46.434Z,102237.20
2018-09-25T07:01:55.000Z,102231.55
2018-09-25T07:07:03.626Z,102239.63
2018-09-25T07:12:12.422Z,102234.41
2018-09-25T07:17:21.358Z,102242.75
2018-09-25T07:22:30.133Z,102247.16
2018-09-25T07:27:38.997Z,102256.97
2018-09-25T07:32:47.849Z,102273.30
2018-09-25T07:37:56.676Z,102288.05
2018-09-25T07:43:05.262Z,102286.88
2018-09-25T07:48:13.994Z,102296.34
2018-09-25T07:53:22.635Z,102297.79
2018-09-25T07:58:31.154Z,102309.52
2018-09-25T08:03:39.925Z,102310.11
2018-09-25T08:08:48.542Z,102307.30
2018-09-25T08:13:57.315Z,102316.08
2018-09-25T08:19:05.934Z,102315.14
2018-09-25T08:24:14.559Z,102316.08
2018-09-25T08:29:23.274Z,102312.95
2018-09-25T08:34:32.073Z,102305.22
2018-09-25T08:39:40.671Z,102321.52
2018-09-25T08:44:49.290Z,102320.77
2018-09-25T08:49:57.806Z,102331.26
2018-09-25T08:55:06.369Z,102323.83
2018-09-25T09:00:15.098Z,102337.09
2018-09-25T09:05:23.828Z,102337.52
2018-09-25T09:10:32.363Z,102333.48
2018-09-25T09:15:40.895Z,102337.58
2018-09-25T09:20:49.607Z,102333.64
2018-09-25T09:25:58.274Z,102340.73
2018-09-25T09:31:06.922Z,102345.92
2018-09-25T09:36:15.548Z,102348.71
2018-09-25T09:41:24.268Z,102351.03
2018-09-25T09:46:32.935Z,102350.52
2018-09-25T09:51:41.709Z,102352.93
2018-09-25T09:56:50.297Z,102358.52
2018-09-25T10:01:58.914Z,102360.82
2018-09-25T10:12:45.342Z,102367.52
2018-09-25T10:17:53.943Z,102361.42
2018-09-25T10:23:02.658Z,102367.12
2018-09-25T10:28:11.377Z,102360.55
2018-09-25T10:33:20.084Z,102364.06
2018-09-25T10:38:28.802Z,102361.61
2018-09-25T10:43:37.465Z,102367.06
2018-09-25T10:48:46.162Z,102369.44
2018-09-25T10:53:55.144Z,102371.52
2018-09-25T10:59:04.145Z,102372.44
2018-09-25T11:04:12.826Z,102373.89
2018-09-25T11:09:21.617Z,102369.63
2018-09-25T11:20:07.702Z,102367.06
2018-09-25T11:25:16.559Z,102368.55
2018-09-25T11:30:25.231Z,102365.45
2018-09-25T11:35:34.002Z,102364.61
2018-09-25T12:31:22.247Z,102373.11
2018-09-25T12:36:30.826Z,102373.30
2018-09-25T12:41:39.593Z,102368.09
2018-09-25T12:46:48.718Z,102362.61
2018-09-25T12:52:04.133Z,102368.09
2018-09-25T12:57:12.731Z,102360.34
2018-09-25T13:02:21.379Z,102357.89
2018-09-25T13:07:30.122Z,102357.07
2018-09-25T13:12:38.747Z,102346.58
2018-09-25T13:17:47.311Z,102345.73
2018-09-25T13:22:56.057Z,102336.88
2018-09-25T13:28:04.721Z,102341.62
2018-09-25T13:33:13.587Z,102337.30
2018-09-25T13:38:22.179Z,102335.11
2018-09-25T13:49:08.438Z,102341.62
2018-09-25T13:54:17.111Z,102348.94
2018-09-25T13:59:27.797Z,102338.98
2018-09-25T14:04:36.523Z,102335.83
2018-09-25T14:09:44.990Z,102328.23
2018-09-25T14:14:53.653Z,102314.69
2018-09-25T14:20:02.192Z,102310.92
2018-09-25T14:25:11.629Z,102315.11
2018-09-25T14:30:20.404Z,102316.72
2018-09-25T14:35:28.998Z,102317.52
2018-09-25T14:40:37.805Z,102315.75
2018-09-25T14:45:46.510Z,102319.55
2018-09-25T14:50:55.156Z,102298.16
2018-09-25T14:56:03.749Z,102295.25
2018-09-25T15:12:21.824Z,102304.30
2018-09-25T15:17:30.594Z,102294.44
2018-09-25T15:22:39.137Z,102285.46
2018-09-25T15:27:47.644Z,102278.66
2018-09-25T15:32:56.283Z,102291.77
2018-09-25T15:38:05.026Z,102306.16
2018-09-25T15:43:13.780Z,102306.53
2018-09-25T15:48:22.314Z,102303.22
2018-09-25T15:53:31.167Z,102301.83
2018-09-25T15:58:39.760Z,102305.16
2018-09-25T16:03:48.312Z,102314.44
2018-09-25T16:08:56.999Z,102319.22
2018-09-25T16:14:05.659Z,102311.08
2018-09-25T16:19:14.287Z,102317.02
2018-09-25T16:24:22.910Z,102314.66
2018-09-25T16:29:31.515Z,102319.26
2018-09-25T16:34:40.314Z,102317.02
2018-09-25T16:39:49.070Z,102312.67
2018-09-25T16:44:57.723Z,102311.06
2018-09-25T16:50:06.254Z,102302.34
2018-09-25T16:55:14.984Z,102309.88
2018-09-25T17:00:24.034Z,102334.45
2018-09-25T17:05:33.484Z,102338.53
2018-09-25T17:10:42.946Z,102346.38
2018-09-25T17:15:51.770Z,102359.45
2018-09-25T17:21:00.685Z,102371.11
2018-09-25T17:26:09.666Z,102374.00
2018-09-25T17:31:18.905Z,102377.21
2018-09-25T17:36:28.051Z,102379.14
2018-09-25T17:41:36.990Z,102383.16
2018-09-25T17:46:45.743Z,102387.34
2018-09-25T17:51:54.359Z,102392.70
2018-09-25T17:57:03.302Z,102390.55
2018-09-25T18:02:12.241Z,102389.73
2018-09-25T18:07:20.846Z,102393.70
2018-09-25T18:12:29.559Z,102390.64
2018-09-25T18:17:38.254Z,102404.52
2018-09-25T18:22:47.033Z,102403.83
2018-09-25T18:27:55.838Z,102410.20
2018-09-25T18:33:04.650Z,102410.80
2018-09-25T18:38:13.273Z,102414.84
2018-09-25T18:43:21.859Z,102412.02
2018-09-25T18:48:30.454Z,102408.01
2018-09-25T18:53:39.250Z,102409.61
2018-09-25T18:58:47.922Z,102417.04
2018-09-25T19:03:56.575Z,102419.73
2018-09-25T19:09:05.341Z,102415.05
2018-09-25T19:14:14.160Z,102412.48
2018-09-25T19:19:22.798Z,102408.83
2018-09-25T19:24:31.446Z,102401.38
2018-09-25T19:29:40.153Z,102403.19
2018-09-25T19:34:48.910Z,102401.20
2018-09-25T19:39:57.977Z,102401.78
2018-09-25T19:45:06.887Z,102406.78
2018-09-25T19:50:15.682Z,102395.57
2018-09-25T19:55:24.266Z,102399.80
2018-09-25T20:00:33.032Z,102396.61
2018-09-25T20:05:41.850Z,102408.09
2018-09-25T20:10:50.611Z,102398.94
2018-09-25T20:15:59.412Z,102399.91
2018-09-25T20:21:08.039Z,102411.44
2018-09-25T20:26:16.702Z,102419.36
2018-09-25T20:31:25.450Z,102423.75
2018-09-25T20:36:34.139Z,102414.76
2018-09-25T20:41:42.659Z,102419.50
2018-09-25T20:46:51.422Z,102426.85
2018-09-25T20:51:59.974Z,102423.48
2018-09-25T20:57:08.801Z,102422.52
2018-09-25T21:02:17.494Z,102424.50
2018-09-25T21:07:25.983Z,102420.33
2018-09-25T21:12:34.614Z,102403.17
2018-09-25T21:17:43.299Z,102402.96
2018-09-25T21:22:51.927Z,102403.02
2018-09-25T21:28:00.592Z,102400.42
2018-09-25T21:33:09.157Z,102405.16
2018-09-25T21:38:17.834Z,102404.80
2018-09-25T21:43:27.001Z,102409.76
2018-09-25T21:48:35.646Z,102414.30
2018-09-25T21:53:44.438Z,102403.02
2018-09-25T21:58:53.174Z,102397.45
2018-09-25T22:04:01.883Z,102396.06
2018-09-25T22:09:12.770Z,102399.22
2018-09-25T22:14:21.455Z,102398.63
2018-09-25T22:19:30.239Z,102401.20
2018-09-25T22:24:38.949Z,102409.55
2018-09-25T22:29:47.559Z,102405.16
2018-09-25T22:34:56.159Z,102399.80
2018-09-25T22:40:04.827Z,102383.06
2018-09-25T22:45:13.490Z,102382.69
2018-09-25T22:50:22.183Z,102383.65
2018-09-25T22:55:30.838Z,102370.30
2018-09-25T23:00:39.531Z,102367.15
2018-09-25T23:05:48.317Z,102381.86
2018-09-25T23:10:57.054Z,102373.52
2018-09-25T23:16:05.562Z,102350.83
2018-09-25T23:21:14.312Z,102345.91
2018-09-25T23:26:22.931Z,102330.34
2018-09-25T23:31:31.578Z,102334.52
2018-09-25T23:36:40.334Z,102330.93
2018-09-25T23:41:47.813Z,102338.52
2018-09-25T23:46:56.594Z,102321.41
2018-09-25T23:52:14.135Z,102322.21
2018-09-25T23:58:22.833Z,102345.42
